createdAt,value
2022-08-31T00:00:14.386Z,11.97
2022-08-31T00:03:20.408Z,12.70
2022-08-31T00:05:48.062Z,11.47
2022-08-31T00:08:15.889Z,12.43
2022-08-31T00:10:46.273Z,13.93
2022-08-31T00:13:13.607Z,9.77
2022-08-31T00:15:41.038Z,8.80
2022-08-31T00:18:08.316Z,9.53
2022-08-31T00:20:36.170Z,11.53
2022-08-31T00:23:08.964Z,9.80
2022-08-31T00:25:39.001Z,9.87
2022-08-31T00:28:07.554Z,8.80
2022-08-31T00:30:34.775Z,9.67
2022-08-31T00:33:02.254Z,11.97
2022-08-31T00:35:31.653Z,9.50
2022-08-31T00:38:00.602Z,9.20
2022-08-31T00:40:28.435Z,7.07
2022-08-31T00:42:56.194Z,9.43
2022-08-31T00:45:24.430Z,8.13
2022-08-31T00:47:52.085Z,8.20
2022-08-31T00:50:21.094Z,7.70
2022-08-31T00:52:53.496Z,13.52
2022-08-31T00:55:35.405Z,9.63
2022-08-31T00:58:11.608Z,13.17
2022-08-31T01:00:43.219Z,11.17
2022-08-31T01:03:10.884Z,7.93
2022-08-31T01:05:39.717Z,7.32
2022-08-31T01:08:07.579Z,8.43
2022-08-31T01:10:39.167Z,14.80
2022-08-31T01:13:07.046Z,10.35
2022-08-31T01:15:36.945Z,12.25
2022-08-31T01:18:06.251Z,14.98
2022-08-31T01:20:48.988Z,16.90
2022-08-31T01:23:22.383Z,9.80
2022-08-31T01:25:54.223Z,18.27
2022-08-31T01:28:21.480Z,11.90
2022-08-31T01:31:10.500Z,12.23
2022-08-31T01:33:39.406Z,15.18
2022-08-31T01:36:11.150Z,11.80
2022-08-31T01:38:42.293Z,18.00
2022-08-31T01:41:09.298Z,14.65
2022-08-31T01:43:38.367Z,15.50
2022-08-31T01:46:10.142Z,11.98
2022-08-31T01:48:41.233Z,15.18
2022-08-31T01:51:12.597Z,13.77
2022-08-31T01:53:45.585Z,17.98
2022-08-31T01:56:23.201Z,14.02
2022-08-31T01:58:50.976Z,15.40
2022-08-31T02:01:40.563Z,14.90
2022-08-31T02:04:10.121Z,16.17
2022-08-31T02:06:37.781Z,18.50
2022-08-31T02:09:05.957Z,15.38
2022-08-31T02:11:33.312Z,15.82
2022-08-31T02:14:00.530Z,15.82
2022-08-31T02:16:27.839Z,13.57
2022-08-31T02:18:55.155Z,20.60
2022-08-31T02:21:23.201Z,17.77
2022-08-31T02:23:50.416Z,17.33
2022-08-31T02:26:17.667Z,17.15
2022-08-31T02:28:47.338Z,15.45
2022-08-31T02:31:14.641Z,14.57
2022-08-31T02:33:49.407Z,17.50
2022-08-31T02:36:16.607Z,13.43
2022-08-31T02:38:44.229Z,12.32
2022-08-31T02:41:11.473Z,15.60
2022-08-31T02:43:40.863Z,17.35
2022-08-31T02:46:07.936Z,10.93
2022-08-31T02:48:42.015Z,11.45
2022-08-31T02:51:13.647Z,10.30
2022-08-31T02:53:40.898Z,12.30
2022-08-31T02:56:08.916Z,11.38
2022-08-31T02:58:36.898Z,10.80
2022-08-31T03:01:04.745Z,8.15
2022-08-31T03:03:34.885Z,10.48
2022-08-31T03:06:02.799Z,12.10
2022-08-31T03:08:31.224Z,12.88
2022-08-31T03:11:00.351Z,12.57
2022-08-31T03:13:27.433Z,8.38
2022-08-31T03:15:54.445Z,10.65
2022-08-31T03:18:22.291Z,10.52
2022-08-31T03:20:50.431Z,11.48
2022-08-31T03:23:17.730Z,9.73
2022-08-31T03:25:47.196Z,10.55
2022-08-31T03:28:15.041Z,9.73
2022-08-31T03:30:49.944Z,10.95
2022-08-31T03:33:21.137Z,8.65
2022-08-31T03:35:48.188Z,7.32
2022-08-31T03:38:17.092Z,6.90
2022-08-31T03:40:44.843Z,7.00
2022-08-31T03:43:13.127Z,7.85
2022-08-31T03:45:43.076Z,10.27
2022-08-31T03:48:12.736Z,9.15
2022-08-31T03:50:43.436Z,7.68
2022-08-31T03:53:22.394Z,6.72
2022-08-31T03:55:52.000Z,8.32
2022-08-31T03:58:19.224Z,8.88
2022-08-31T04:00:46.628Z,10.30
2022-08-31T04:03:33.800Z,6.32
2022-08-31T04:06:20.116Z,8.68
2022-08-31T04:09:23.029Z,7.43
2022-08-31T04:12:09.580Z,4.57
2022-08-31T04:14:43.171Z,7.68
2022-08-31T04:17:38.802Z,7.82
2022-08-31T04:20:37.414Z,9.93
2022-08-31T04:23:04.989Z,7.35
2022-08-31T04:25:41.479Z,8.05
2022-08-31T04:28:09.433Z,9.18
2022-08-31T04:30:42.425Z,6.93
2022-08-31T04:33:11.789Z,7.35
2022-08-31T04:35:40.871Z,8.68
2022-08-31T04:38:10.079Z,4.85
2022-08-31T04:40:39.489Z,5.28
2022-08-31T04:43:08.138Z,7.10
2022-08-31T04:45:35.398Z,8.82
2022-08-31T04:48:02.738Z,11.27
2022-08-31T04:50:30.077Z,10.98
2022-08-31T04:53:23.685Z,10.18
2022-08-31T04:55:50.900Z,16.13
2022-08-31T04:58:20.551Z,11.05
2022-08-31T05:00:47.615Z,14.65
2022-08-31T05:03:44.777Z,14.68
2022-08-31T05:06:16.900Z,14.82
2022-08-31T05:08:45.044Z,14.38
2022-08-31T05:11:14.732Z,16.95
2022-08-31T05:13:42.380Z,14.75
2022-08-31T05:16:16.589Z,13.10
2022-08-31T05:18:46.725Z,12.63
2022-08-31T05:21:30.298Z,21.08
2022-08-31T05:24:06.488Z,14.32
2022-08-31T05:26:38.016Z,12.63
2022-08-31T05:29:10.505Z,8.23
2022-08-31T05:31:38.973Z,13.80
2022-08-31T05:34:06.985Z,9.93
2022-08-31T05:36:37.665Z,15.98
2022-08-31T05:39:11.804Z,8.23
2022-08-31T05:41:40.634Z,8.10
2022-08-31T05:44:08.772Z,8.93
2022-08-31T05:46:37.570Z,7.53
2022-08-31T05:49:06.711Z,5.00
2022-08-31T05:51:38.009Z,4.35
2022-08-31T05:54:07.218Z,6.35
2022-08-31T05:56:35.541Z,6.10
2022-08-31T05:59:02.860Z,4.53
2022-08-31T06:01:34.176Z,5.70
2022-08-31T06:04:08.889Z,8.00
2022-08-31T06:06:37.194Z,4.57
2022-08-31T06:09:06.935Z,4.50
2022-08-31T06:11:35.443Z,5.72
2022-08-31T06:14:05.764Z,5.15
2022-08-31T06:16:33.518Z,5.40
2022-08-31T06:19:03.565Z,5.57
2022-08-31T06:21:36.135Z,2.88
2022-08-31T06:24:05.826Z,7.00
2022-08-31T06:26:36.094Z,6.05
2022-08-31T06:29:09.377Z,7.47
2022-08-31T06:31:47.198Z,5.05
2022-08-31T06:34:19.821Z,7.47
2022-08-31T06:36:52.914Z,5.22
2022-08-31T06:39:39.291Z,6.50
2022-08-31T06:42:14.964Z,4.97
2022-08-31T06:45:01.915Z,5.10
2022-08-31T06:47:47.964Z,8.77
2022-08-31T06:50:15.970Z,7.03
2022-08-31T06:52:43.088Z,8.55
2022-08-31T06:55:19.049Z,4.82
2022-08-31T06:57:51.832Z,7.18
2022-08-31T07:00:37.759Z,4.78
2022-08-31T07:03:24.110Z,3.13
2022-08-31T07:05:53.128Z,5.93
2022-08-31T07:08:21.153Z,6.15
2022-08-31T07:10:49.224Z,4.68
2022-08-31T07:13:16.920Z,4.53
2022-08-31T07:15:44.133Z,4.07
2022-08-31T07:18:11.508Z,2.58
2022-08-31T07:20:39.011Z,2.58
2022-08-31T07:23:09.312Z,3.38
2022-08-31T07:25:41.271Z,2.75
2022-08-31T07:28:08.391Z,2.22
2022-08-31T07:30:38.357Z,2.53
2022-08-31T07:33:06.870Z,2.10
2022-08-31T07:35:36.389Z,1.55
2022-08-31T07:38:28.208Z,1.27
2022-08-31T07:41:13.898Z,2.55
2022-08-31T07:43:42.183Z,2.25
2022-08-31T07:46:10.193Z,1.85
2022-08-31T07:48:37.979Z,3.92
2022-08-31T07:51:05.205Z,4.50
2022-08-31T07:53:45.135Z,2.42
2022-08-31T07:56:52.251Z,2.17
2022-08-31T07:59:23.211Z,3.33
2022-08-31T08:01:56.080Z,2.38
2022-08-31T08:04:27.663Z,2.05
2022-08-31T08:07:00.449Z,7.00
2022-08-31T08:09:47.017Z,6.57
2022-08-31T08:12:47.238Z,1.02
2022-08-31T08:15:38.806Z,2.42
2022-08-31T08:18:14.164Z,2.22
2022-08-31T08:20:49.675Z,2.08
2022-08-31T08:23:28.140Z,2.30
2022-08-31T08:26:21.429Z,1.98
2022-08-31T08:29:01.104Z,2.08
2022-08-31T08:31:29.227Z,2.05
2022-08-31T08:33:57.240Z,1.38
2022-08-31T08:36:25.180Z,2.58
2022-08-31T08:38:54.177Z,3.58
2022-08-31T08:41:27.137Z,4.95
2022-08-31T08:44:00.752Z,2.30
2022-08-31T08:46:40.162Z,1.38
2022-08-31T08:49:15.838Z,1.17
2022-08-31T08:51:46.261Z,5.85
2022-08-31T08:54:24.666Z,3.28
2022-08-31T08:56:51.970Z,2.72
2022-08-31T08:59:20.680Z,1.50
2022-08-31T09:01:53.159Z,1.35
2022-08-31T09:04:59.546Z,2.20
2022-08-31T09:07:52.611Z,2.05
2022-08-31T09:10:30.444Z,3.63
2022-08-31T09:13:09.895Z,2.03
2022-08-31T09:15:56.358Z,3.10
2022-08-31T09:18:42.641Z,2.05
2022-08-31T09:21:30.972Z,5.55
2022-08-31T09:24:03.939Z,3.05
2022-08-31T09:27:19.187Z,1.90
2022-08-31T09:30:01.154Z,4.32
2022-08-31T09:32:31.624Z,1.75
2022-08-31T09:35:08.176Z,1.90
2022-08-31T09:37:41.391Z,2.65
2022-08-31T09:40:14.761Z,1.77
2022-08-31T09:42:45.381Z,1.58
2022-08-31T09:45:38.704Z,2.17
2022-08-31T09:48:09.719Z,2.67
2022-08-31T09:50:46.305Z,3.83
2022-08-31T09:53:44.615Z,1.98
2022-08-31T09:56:23.871Z,2.65
2022-08-31T09:59:05.920Z,4.18
2022-08-31T10:01:45.261Z,1.35
2022-08-31T10:04:20.465Z,3.55
2022-08-31T10:07:49.061Z,2.08
2022-08-31T10:10:39.394Z,5.60
2022-08-31T10:13:28.063Z,2.33
2022-08-31T10:16:03.198Z,2.17
2022-08-31T10:18:57.951Z,2.63
2022-08-31T10:21:35.387Z,2.60
2022-08-31T10:24:20.931Z,5.68
2022-08-31T10:26:57.140Z,2.15
2022-08-31T10:29:31.657Z,4.45
2022-08-31T10:32:03.720Z,2.65
2022-08-31T10:34:54.666Z,1.83
2022-08-31T10:37:31.663Z,2.90
2022-08-31T10:40:06.893Z,4.35
2022-08-31T10:42:43.051Z,1.95
2022-08-31T10:45:22.356Z,3.15
2022-08-31T10:47:52.900Z,4.20
2022-08-31T10:50:45.620Z,3.33
2022-08-31T10:53:34.949Z,1.83
2022-08-31T10:56:14.940Z,4.63
2022-08-31T10:58:56.013Z,3.88
2022-08-31T11:01:55.000Z,3.20
2022-08-31T11:04:43.480Z,1.92
2022-08-31T11:07:45.432Z,3.90
2022-08-31T11:10:43.900Z,2.90
2022-08-31T11:13:53.955Z,2.63
2022-08-31T11:16:46.915Z,0.95
2022-08-31T11:19:50.909Z,3.03
2022-08-31T11:22:37.575Z,4.53
2022-08-31T11:25:15.163Z,4.57
2022-08-31T11:27:51.018Z,1.67
2022-08-31T11:30:26.794Z,2.33
2022-08-31T11:32:57.605Z,1.67
2022-08-31T11:36:07.277Z,5.45
2022-08-31T11:38:52.185Z,3.67
2022-08-31T11:41:31.403Z,4.32
2022-08-31T11:44:04.751Z,3.40
2022-08-31T11:46:34.299Z,4.53
2022-08-31T11:49:02.094Z,2.53
2022-08-31T11:51:45.225Z,1.08
2022-08-31T11:54:42.139Z,2.63
2022-08-31T11:57:15.549Z,3.80
2022-08-31T11:59:46.137Z,2.78
2022-08-31T12:02:23.145Z,2.38
2022-08-31T12:04:53.593Z,3.38
2022-08-31T12:07:24.901Z,3.17
2022-08-31T12:10:17.603Z,3.40
2022-08-31T12:13:07.828Z,2.60
2022-08-31T12:16:10.239Z,2.70
2022-08-31T12:18:46.716Z,2.70
2022-08-31T12:21:54.317Z,6.82
2022-08-31T12:24:40.091Z,3.55
2022-08-31T12:27:44.208Z,3.15
2022-08-31T12:30:21.972Z,1.60
2022-08-31T12:33:04.279Z,3.88
2022-08-31T12:35:33.437Z,2.95
2022-08-31T12:38:06.802Z,2.70
2022-08-31T12:40:45.742Z,3.35
2022-08-31T12:43:23.637Z,1.73
2022-08-31T12:45:57.379Z,2.45
2022-08-31T12:48:33.422Z,4.00
2022-08-31T12:51:26.110Z,2.13
2022-08-31T12:53:56.503Z,1.77
2022-08-31T12:57:01.391Z,3.75
2022-08-31T13:00:01.019Z,1.85
2022-08-31T13:02:34.917Z,2.78
2022-08-31T13:05:03.285Z,2.10
2022-08-31T13:07:33.818Z,1.05
2022-08-31T13:10:14.592Z,1.75
2022-08-31T13:12:57.055Z,4.93
2022-08-31T13:15:35.102Z,2.22
2022-08-31T13:18:21.487Z,5.38
2022-08-31T13:20:53.210Z,2.55
2022-08-31T13:23:29.961Z,6.75
2022-08-31T13:26:15.133Z,4.38
2022-08-31T13:28:42.347Z,4.95
2022-08-31T13:31:09.693Z,2.28
2022-08-31T13:33:40.363Z,7.25
2022-08-31T13:36:09.663Z,2.25
2022-08-31T13:38:48.321Z,2.08
2022-08-31T13:41:30.109Z,1.77
2022-08-31T13:44:02.634Z,3.75
2022-08-31T13:46:50.192Z,1.52
2022-08-31T13:49:44.338Z,2.30
2022-08-31T13:52:19.843Z,3.88
2022-08-31T13:54:59.395Z,2.42
2022-08-31T13:57:35.149Z,1.70
2022-08-31T14:00:37.338Z,2.88
2022-08-31T14:03:49.979Z,3.53
2022-08-31T14:06:24.006Z,4.57
2022-08-31T14:09:07.244Z,3.53
2022-08-31T14:11:35.670Z,1.70
2022-08-31T14:14:08.574Z,2.85
2022-08-31T14:16:39.867Z,1.88
2022-08-31T14:19:12.151Z,4.82
2022-08-31T14:21:42.189Z,0.50
2022-08-31T14:24:12.257Z,1.15
2022-08-31T14:26:44.067Z,2.60
2022-08-31T14:29:14.340Z,1.70
2022-08-31T14:31:53.810Z,1.95
2022-08-31T14:34:30.336Z,4.20
2022-08-31T14:37:06.278Z,4.03
2022-08-31T14:39:35.208Z,1.08
2022-08-31T14:42:07.556Z,3.28
2022-08-31T14:44:43.670Z,1.70
2022-08-31T14:47:12.330Z,2.90
2022-08-31T14:49:41.171Z,4.18
2022-08-31T14:52:08.226Z,4.20
2022-08-31T14:54:37.231Z,2.15
2022-08-31T14:57:12.526Z,3.90
2022-08-31T14:59:43.051Z,6.13
2022-08-31T15:02:12.935Z,2.15
2022-08-31T15:04:45.393Z,2.13
2022-08-31T15:07:13.830Z,3.75
2022-08-31T15:09:41.963Z,4.30
2022-08-31T15:12:14.826Z,4.90
2022-08-31T15:14:44.780Z,2.30
2022-08-31T15:17:18.935Z,3.67
2022-08-31T15:19:50.422Z,1.77
2022-08-31T15:22:18.403Z,6.55
2022-08-31T15:24:45.557Z,1.98
2022-08-31T15:27:15.526Z,1.95
2022-08-31T15:29:43.877Z,1.00
2022-08-31T15:32:16.419Z,6.80
2022-08-31T15:34:50.063Z,3.85
2022-08-31T15:37:17.293Z,3.50
2022-08-31T15:39:48.979Z,3.00
2022-08-31T15:42:20.355Z,3.92
2022-08-31T15:44:56.051Z,6.85
2022-08-31T15:47:53.790Z,3.47
2022-08-31T15:50:25.058Z,7.72
2022-08-31T15:52:54.900Z,4.18
2022-08-31T15:55:26.614Z,3.45
2022-08-31T15:57:58.906Z,2.90
2022-08-31T16:00:32.427Z,2.42
2022-08-31T16:03:01.517Z,4.47
2022-08-31T16:05:35.828Z,2.47
2022-08-31T16:08:03.863Z,5.75
2022-08-31T16:10:31.209Z,6.28
2022-08-31T16:12:58.314Z,4.40
2022-08-31T16:15:27.391Z,2.17
2022-08-31T16:17:57.652Z,4.18
2022-08-31T16:20:27.459Z,2.30
2022-08-31T16:22:54.829Z,2.33
2022-08-31T16:25:22.239Z,2.88
2022-08-31T16:27:49.888Z,4.60
2022-08-31T16:30:16.993Z,1.65
2022-08-31T16:32:46.426Z,4.80
2022-08-31T16:35:15.173Z,2.85
2022-08-31T16:37:42.090Z,3.10
2022-08-31T16:40:10.065Z,1.23
2022-08-31T16:42:37.380Z,3.72
2022-08-31T16:45:05.058Z,3.72
2022-08-31T16:47:32.312Z,7.47
2022-08-31T16:49:59.979Z,8.50
2022-08-31T16:52:27.551Z,3.78
2022-08-31T16:54:59.293Z,3.90
2022-08-31T16:57:29.719Z,3.13
2022-08-31T16:59:58.418Z,6.45
2022-08-31T17:02:27.150Z,3.78
2022-08-31T17:04:54.759Z,3.55
2022-08-31T17:07:24.539Z,3.10
2022-08-31T17:09:56.577Z,5.13
2022-08-31T17:12:27.374Z,8.13
2022-08-31T17:14:54.529Z,3.00
2022-08-31T17:17:25.228Z,9.27
2022-08-31T17:19:55.824Z,13.10
2022-08-31T17:22:31.877Z,8.75
2022-08-31T17:25:04.847Z,8.63
2022-08-31T17:27:34.246Z,10.85
2022-08-31T17:30:05.969Z,7.80
2022-08-31T17:32:37.293Z,9.05
2022-08-31T17:35:18.335Z,5.32
2022-08-31T17:37:46.676Z,7.15
2022-08-31T17:40:14.419Z,10.20
2022-08-31T17:42:42.167Z,6.32
2022-08-31T17:45:09.789Z,2.92
2022-08-31T17:47:37.022Z,5.38
2022-08-31T17:50:05.167Z,10.60
2022-08-31T17:52:32.627Z,5.70
2022-08-31T17:55:01.882Z,11.10
2022-08-31T17:57:29.683Z,10.80
2022-08-31T17:59:56.744Z,6.03
2022-08-31T18:02:32.278Z,5.63
2022-08-31T18:05:00.676Z,4.70
2022-08-31T18:07:28.438Z,3.85
2022-08-31T18:09:56.179Z,7.53
2022-08-31T18:12:25.645Z,4.53
2022-08-31T18:14:53.948Z,8.43
2022-08-31T18:17:22.465Z,8.27
2022-08-31T18:19:50.087Z,10.77
2022-08-31T18:22:18.282Z,5.80
2022-08-31T18:24:45.753Z,5.57
2022-08-31T18:27:15.351Z,4.40
2022-08-31T18:29:45.916Z,7.43
2022-08-31T18:32:14.240Z,4.45
2022-08-31T18:34:47.342Z,4.95
2022-08-31T18:37:22.177Z,8.48
2022-08-31T18:40:08.626Z,6.13
2022-08-31T18:42:57.210Z,8.23
2022-08-31T18:45:30.845Z,3.30
2022-08-31T18:48:34.994Z,5.47
2022-08-31T18:50:49.414Z,5.35
2022-08-31T18:53:28.432Z,3.20
2022-08-31T18:56:08.831Z,3.05
2022-08-31T18:58:37.894Z,3.92
2022-08-31T19:01:05.947Z,4.40
2022-08-31T19:03:33.167Z,3.65
2022-08-31T19:06:00.327Z,4.13
2022-08-31T19:08:29.267Z,6.57
2022-08-31T19:10:58.106Z,6.75
2022-08-31T19:13:28.705Z,6.78
2022-08-31T19:16:01.296Z,6.85
2022-08-31T19:18:30.961Z,10.77
2022-08-31T19:20:58.070Z,5.40
2022-08-31T19:23:25.566Z,7.32
2022-08-31T19:25:52.936Z,3.97
2022-08-31T19:28:19.977Z,6.05
2022-08-31T19:30:48.693Z,7.88
2022-08-31T19:33:16.608Z,3.33
2022-08-31T19:35:44.354Z,3.30
2022-08-31T19:38:12.090Z,2.38
2022-08-31T19:40:40.022Z,3.65
2022-08-31T19:45:54.507Z,4.05
2022-08-31T19:48:23.387Z,2.80
2022-08-31T19:50:52.339Z,3.05
2022-08-31T19:53:21.531Z,5.50
2022-08-31T19:55:51.568Z,2.65
2022-08-31T19:58:25.507Z,4.40
2022-08-31T20:01:04.482Z,3.40
2022-08-31T20:03:34.226Z,3.35
2022-08-31T20:06:13.479Z,3.05
2022-08-31T20:08:42.563Z,3.63
2022-08-31T20:11:13.107Z,3.83
2022-08-31T20:13:41.219Z,7.28
2022-08-31T20:16:09.642Z,3.58
2022-08-31T20:18:37.422Z,8.60
2022-08-31T20:21:15.100Z,5.32
2022-08-31T20:23:47.835Z,3.30
2022-08-31T20:26:21.297Z,3.33
2022-08-31T20:28:50.823Z,5.47
2022-08-31T20:31:18.153Z,2.83
2022-08-31T20:33:46.978Z,4.53
2022-08-31T20:36:22.662Z,4.45
2022-08-31T20:38:57.132Z,2.85
2022-08-31T20:41:25.589Z,7.32
2022-08-31T20:43:52.863Z,5.97
2022-08-31T20:46:38.489Z,5.45
2022-08-31T20:49:23.760Z,6.45
2022-08-31T20:51:51.862Z,2.73
2022-08-31T20:54:19.105Z,2.50
2022-08-31T20:56:46.260Z,4.50
2022-08-31T20:59:13.193Z,4.25
2022-08-31T21:01:40.940Z,4.95
2022-08-31T21:04:08.265Z,4.95
2022-08-31T21:06:39.435Z,2.80
2022-08-31T21:09:08.269Z,6.25
2022-08-31T21:11:40.655Z,6.53
2022-08-31T21:14:08.226Z,5.63
2022-08-31T21:16:35.844Z,5.13
2022-08-31T21:19:04.716Z,10.40
2022-08-31T21:21:31.917Z,7.60
2022-08-31T21:23:58.969Z,14.60
2022-08-31T21:26:27.975Z,9.67
2022-08-31T21:28:56.715Z,6.97
2022-08-31T21:31:28.876Z,9.55
2022-08-31T21:33:59.216Z,11.38
2022-08-31T21:36:27.490Z,12.87
2022-08-31T21:38:56.604Z,15.97
2022-08-31T21:41:26.960Z,16.13
2022-08-31T21:43:55.854Z,18.33
2022-08-31T21:46:28.385Z,29.57
2022-08-31T21:48:57.775Z,25.53
2022-08-31T21:51:42.144Z,29.15
2022-08-31T21:54:09.846Z,34.00
2022-08-31T21:56:40.233Z,34.17
2022-08-31T21:59:07.242Z,27.20
2022-08-31T22:01:35.459Z,31.67
2022-08-31T22:04:05.365Z,21.97
2022-08-31T22:06:33.181Z,21.33
2022-08-31T22:09:07.048Z,22.00
2022-08-31T22:11:40.145Z,18.37
2022-08-31T22:14:10.247Z,17.90
2022-08-31T22:16:39.418Z,21.93
2022-08-31T22:19:13.281Z,19.63
2022-08-31T22:21:44.435Z,18.03
2022-08-31T22:24:26.923Z,13.43
2022-08-31T22:26:57.661Z,15.50
2022-08-31T22:29:27.621Z,17.77
2022-08-31T22:32:01.918Z,15.93
2022-08-31T22:34:29.825Z,15.57
2022-08-31T22:36:57.483Z,16.30
2022-08-31T22:39:28.585Z,16.13
2022-08-31T22:41:57.637Z,9.33
2022-08-31T22:44:27.110Z,10.97
2022-08-31T22:46:57.104Z,9.20
2022-08-31T22:49:25.978Z,8.63
2022-08-31T22:51:54.383Z,6.23
2022-08-31T22:54:22.161Z,10.40
2022-08-31T22:56:50.024Z,8.27
2022-08-31T22:59:24.660Z,8.70
2022-08-31T23:01:55.028Z,6.50
2022-08-31T23:04:26.335Z,8.37
2022-08-31T23:06:56.162Z,7.53
2022-08-31T23:09:27.752Z,8.03
2022-08-31T23:11:57.059Z,8.30
2022-08-31T23:14:24.592Z,8.55
2022-08-31T23:16:59.199Z,7.07
2022-08-31T23:19:38.772Z,4.77
2022-08-31T23:22:09.552Z,4.93
2022-08-31T23:24:47.043Z,5.57
2022-08-31T23:27:17.417Z,13.93
2022-08-31T23:29:47.982Z,18.83
2022-08-31T23:32:18.977Z,20.83
2022-08-31T23:34:50.190Z,28.43
2022-08-31T23:37:17.946Z,31.97
2022-08-31T23:39:46.589Z,30.43
2022-08-31T23:42:16.696Z,25.80
2022-08-31T23:44:45.954Z,19.17
2022-08-31T23:47:20.283Z,25.17
2022-08-31T23:49:51.268Z,25.63
2022-08-31T23:52:21.517Z,12.23
2022-08-31T23:54:51.227Z,13.67
2022-08-31T23:57:32.615Z,12.50
